Time;durP1;ratioP1;P1;durP2;ratioP2;P2;SDS_P1;SDS_P2;PMS_P1;PMS_P2;Temp;Humidity;BMP_temperature;BMP_pressure;BME280_temperature;BME280_humidity;BME280_pressure;Samples;Min_cycle;Max_cycle;Signal;HPM_P1;HPM_P2
2023/06/22 00:01:09;;;;;;;;;6.00;5.33;;;;;;;;5100256;27;45328;-73
2023/06/22 00:03:34;;;;;;;;;5.00;5.00;;;;;;;;5100419;27;45472;-73
2023/06/22 00:06:00;;;;;;;;;3.67;3.67;;;;;;;;5082850;27;45256;-73
2023/06/22 00:08:25;;;;;;;;;6.67;6.00;;;;;;;;5079449;28;45324;-73
2023/06/22 00:10:50;;;;;;;;;4.33;4.33;;;;;;;;5061144;28;45284;-73
2023/06/22 00:13:17;;;;;;;;;6.00;5.33;;;;;;;;5079854;28;45209;-73
2023/06/22 00:15:43;;;;;;;;;6.00;6.00;;;;;;;;5079692;28;45379;-74
2023/06/22 00:18:09;;;;;;;;;7.33;7.33;;;;;;;;5079376;28;46209;-73
2023/06/22 00:20:36;;;;;;;;;5.00;5.00;;;;;;;;5061043;28;45366;-74
2023/06/22 00:23:06;;;;;;;;;5.33;5.33;;;;;;;;5079743;28;45382;-74
2023/06/22 00:25:31;;;;;;;;;6.67;6.67;;;;;;;;5078780;28;46072;-73
2023/06/22 00:27:56;;;;;;;;;6.67;6.67;;;;;;;;5079273;28;45283;-73
2023/06/22 00:30:22;;;;;;;;;7.00;7.00;;;;;;;;5096976;27;45372;-73
2023/06/22 00:32:47;;;;;;;;;5.33;5.33;;;;;;;;5081592;27;45241;-73
2023/06/22 00:35:12;;;;;;;;;6.67;5.00;;;;;;;;5099611;27;45200;-74
2023/06/22 00:37:40;;;;;;;;;6.33;6.33;;;;;;;;5099690;27;46490;-73
2023/06/22 00:40:07;;;;;;;;;8.00;8.00;;;;;;;;5099515;27;45412;-73
2023/06/22 00:42:32;;;;;;;;;6.00;6.00;;;;;;;;5099382;27;45368;-73
2023/06/22 00:44:57;;;;;;;;;6.33;6.33;;;;;;;;5099594;27;45507;-73
2023/06/22 00:47:23;;;;;;;;;8.33;6.00;;;;;;;;5099731;27;45833;-74
2023/06/22 00:49:50;;;;;;;;;5.00;5.00;;;;;;;;5099769;27;45323;-73
2023/06/22 00:52:20;;;;;;;;;5.00;5.00;;;;;;;;5100012;27;45223;-74
2023/06/22 00:54:48;;;;;;;;;3.67;3.67;;;;;;;;5099775;27;45430;-74
2023/06/22 00:57:15;;;;;;;;;6.67;4.67;;;;;;;;5080785;27;48116;-74
2023/06/22 00:59:42;;;;;;;;;5.00;5.00;;;;;;;;5099845;27;45264;-73
2023/06/22 01:02:07;;;;;;;;;6.33;6.33;;;;;;;;5099549;27;45169;-74
2023/06/22 01:04:36;;;;;;;;;7.33;7.33;;;;;;;;5100885;27;45282;-73
2023/06/22 01:07:15;;;;;;;;;5.33;5.33;;;;;;;;5102728;27;46242;-73
2023/06/22 01:09:49;;;;;;;;;5.67;5.67;;;;;;;;5102955;27;45281;-74
2023/06/22 01:12:15;;;;;;;;;7.00;6.00;;;;;;;;5084460;27;45359;-73
2023/06/22 01:14:40;;;;;;;;;6.00;6.00;;;;;;;;5102786;27;45299;-73
2023/06/22 01:17:07;;;;;;;;;6.33;6.00;;;;;;;;5084252;27;47276;-73
2023/06/22 01:19:54;;;;;;;;;5.33;5.33;;;;;;;;5102711;27;45183;-74
2023/06/22 01:22:20;;;;;;;;;8.00;7.00;;;;;;;;5102666;27;45380;-73
2023/06/22 01:24:49;;;;;;;;;7.33;7.33;;;;;;;;5102581;27;45349;-74
2023/06/22 01:27:32;;;;;;;;;7.00;7.00;;;;;;;;5102537;27;46561;-73
2023/06/22 01:30:00;;;;;;;;;6.67;6.00;;;;;;;;5088448;27;45380;-73
2023/06/22 01:32:30;;;;;;;;;9.00;8.33;;;;;;;;5082120;28;45213;-74
2023/06/22 01:34:55;;;;;;;;;5.00;5.00;;;;;;;;5082023;28;45518;-73
2023/06/22 01:37:21;;;;;;;;;6.33;6.33;;;;;;;;5082118;28;45320;-74
2023/06/22 01:39:47;;;;;;;;;8.00;8.00;;;;;;;;5082000;28;45389;-73
2023/06/22 01:42:12;;;;;;;;;5.00;5.00;;;;;;;;5081446;28;45327;-74
2023/06/22 01:44:38;;;;;;;;;7.00;5.00;;;;;;;;5081801;28;45368;-73
2023/06/22 01:47:03;;;;;;;;;8.00;6.67;;;;;;;;5081866;28;46364;-73
2023/06/22 01:49:28;;;;;;;;;6.67;6.67;;;;;;;;5081750;28;45296;-74
2023/06/22 01:51:54;;;;;;;;;6.00;6.00;;;;;;;;5081999;28;45284;-73
2023/06/22 01:54:19;;;;;;;;;5.67;5.00;;;;;;;;5063451;28;45488;-73
2023/06/22 01:56:44;;;;;;;;;9.33;8.00;;;;;;;;5081423;28;46041;-73
2023/06/22 01:59:13;;;;;;;;;6.00;5.00;;;;;;;;5063434;28;45239;-73
2023/06/22 02:01:54;;;;;;;;;5.00;5.00;;;;;;;;5063398;28;45434;-74
2023/06/22 02:04:21;;;;;;;;;8.00;7.00;;;;;;;;5081726;28;45403;-73
2023/06/22 02:06:47;;;;;;;;;7.00;7.00;;;;;;;;5063091;28;46067;-74
2023/06/22 02:09:15;;;;;;;;;7.00;7.00;;;;;;;;5063689;28;45907;-73
2023/06/22 02:11:42;;;;;;;;;8.67;8.67;;;;;;;;5081445;28;45319;-73
2023/06/22 02:14:08;;;;;;;;;9.33;8.67;;;;;;;;5081646;28;45382;-73
2023/06/22 02:16:33;;;;;;;;;7.33;7.33;;;;;;;;5081196;28;45988;-74
2023/06/22 02:19:03;;;;;;;;;9.33;8.00;;;;;;;;5081110;28;45300;-73
2023/06/22 02:21:28;;;;;;;;;7.00;7.00;;;;;;;;5081452;28;45512;-73
2023/06/22 02:23:53;;;;;;;;;7.00;7.00;;;;;;;;5081686;28;45331;-73
2023/06/22 02:26:18;;;;;;;;;8.00;8.00;;;;;;;;5081039;28;46099;-73
2023/06/22 02:28:44;;;;;;;;;6.67;6.33;;;;;;;;5085023;27;45300;-74
2023/06/22 02:31:09;;;;;;;;;6.00;6.00;;;;;;;;5102069;27;45411;-73
2023/06/22 02:33:34;;;;;;;;;7.00;7.00;;;;;;;;5101692;27;45277;-74
2023/06/22 02:36:00;;;;;;;;;8.33;8.33;;;;;;;;5101647;27;45896;-74
2023/06/22 02:38:26;;;;;;;;;8.00;8.00;;;;;;;;5095178;27;45388;-74
2023/06/22 02:40:54;;;;;;;;;7.00;7.00;;;;;;;;5080919;28;45399;-73
2023/06/22 02:43:19;;;;;;;;;7.00;7.00;;;;;;;;5062376;28;46211;-73
2023/06/22 02:45:44;;;;;;;;;7.67;7.00;;;;;;;;5080810;28;45318;-74
2023/06/22 02:48:09;;;;;;;;;8.00;8.00;;;;;;;;5080816;28;45232;-74
2023/06/22 02:50:35;;;;;;;;;7.33;7.33;;;;;;;;5080903;28;45356;-73
2023/06/22 02:53:00;;;;;;;;;6.33;6.33;;;;;;;;5080933;28;45521;-73
2023/06/22 02:55:25;;;;;;;;;7.33;6.67;;;;;;;;5080345;28;46057;-73
2023/06/22 02:57:52;;;;;;;;;7.33;7.33;;;;;;;;5080732;28;45219;-74
2023/06/22 03:00:18;;;;;;;;;4.00;4.00;;;;;;;;5080744;28;45212;-74
2023/06/22 03:02:44;;;;;;;;;7.67;7.67;;;;;;;;5080837;28;45631;-74
2023/06/22 03:05:13;;;;;;;;;9.33;8.33;;;;;;;;5062159;28;47149;-74
2023/06/22 03:07:38;;;;;;;;;7.00;7.00;;;;;;;;5080566;28;45316;-73
2023/06/22 03:10:03;;;;;;;;;5.00;5.00;;;;;;;;5080608;28;45235;-73
2023/06/22 03:12:29;;;;;;;;;7.33;7.33;;;;;;;;5080405;28;45232;-73
2023/06/22 03:14:54;;;;;;;;;8.33;8.33;;;;;;;;5080517;28;45233;-74
2023/06/22 03:17:19;;;;;;;;;8.67;8.67;;;;;;;;5080521;28;45302;-74
2023/06/22 03:19:44;;;;;;;;;7.33;7.33;;;;;;;;5080520;28;45202;-73
2023/06/22 03:22:09;;;;;;;;;6.33;5.00;;;;;;;;5080098;28;45351;-74
2023/06/22 03:24:37;;;;;;;;;8.00;8.00;;;;;;;;5063275;28;47625;-74
2023/06/22 03:27:04;;;;;;;;;7.00;7.00;;;;;;;;5079371;28;45181;-74
2023/06/22 03:29:30;;;;;;;;;8.00;8.00;;;;;;;;5090536;27;45289;-73
2023/06/22 03:31:55;;;;;;;;;7.67;7.67;;;;;;;;5100952;27;45428;-73
2023/06/22 03:34:20;;;;;;;;;7.33;7.00;;;;;;;;5100626;27;45427;-74
2023/06/22 03:36:45;;;;;;;;;7.67;7.00;;;;;;;;5082088;27;45671;-74
2023/06/22 03:39:10;;;;;;;;;9.33;9.00;;;;;;;;5100727;27;45256;-73
2023/06/22 03:41:35;;;;;;;;;9.33;9.33;;;;;;;;5100111;27;45359;-73
2023/06/22 03:44:01;;;;;;;;;13.00;13.00;;;;;;;;5100387;27;45360;-74
2023/06/22 03:46:26;;;;;;;;;12.00;12.00;;;;;;;;5100602;27;45385;-74
2023/06/22 03:48:52;;;;;;;;;11.67;10.00;;;;;;;;5081956;27;45404;-74
2023/06/22 03:51:17;;;;;;;;;9.33;9.33;;;;;;;;5100677;27;45311;-74
2023/06/22 03:53:43;;;;;;;;;13.00;13.00;;;;;;;;5100492;27;46156;-73
2023/06/22 03:56:08;;;;;;;;;58.33;46.00;;;;;;;;5100222;27;45283;-73
2023/06/22 03:58:36;;;;;;;;;77.75;73.00;;;;;;;;5100243;27;45268;-73
2023/06/22 04:01:01;;;;;;;;;61.50;49.25;;;;;;;;5100245;27;45196;-74
2023/06/22 04:03:26;;;;;;;;;50.33;38.67;;;;;;;;5081589;27;47258;-73
2023/06/22 04:05:52;;;;;;;;;31.67;28.00;;;;;;;;5081678;27;45872;-73
2023/06/22 04:08:17;;;;;;;;;95.00;88.75;;;;;;;;5081756;27;45455;-73
2023/06/22 04:10:43;;;;;;;;;78.25;70.75;;;;;;;;5099914;27;45439;-74
2023/06/22 04:13:08;;;;;;;;;33.00;29.00;;;;;;;;5100072;27;45382;-73
2023/06/22 04:15:33;;;;;;;;;7.67;7.00;;;;;;;;5081996;27;45427;-74
2023/06/22 04:17:58;;;;;;;;;9.00;9.00;;;;;;;;5100193;27;45468;-73
2023/06/22 04:20:26;;;;;;;;;8.00;8.00;;;;;;;;5081506;27;47101;-73
2023/06/22 04:22:52;;;;;;;;;9.00;9.00;;;;;;;;5099823;27;47309;-73
2023/06/22 04:25:18;;;;;;;;;22.67;22.00;;;;;;;;5093721;27;45346;-73
2023/06/22 04:27:43;;;;;;;;;26.33;25.67;;;;;;;;5079459;28;45737;-72
2023/06/22 04:30:08;;;;;;;;;38.67;31.33;;;;;;;;5094529;27;45591;-73
2023/06/22 04:32:35;;;;;;;;;38.33;31.33;;;;;;;;5099716;27;45313;-73
2023/06/22 04:35:01;;;;;;;;;26.67;24.33;;;;;;;;5104895;27;45221;-74
2023/06/22 04:37:26;;;;;;;;;32.67;28.00;;;;;;;;5099786;27;45206;-73
2023/06/22 04:39:52;;;;;;;;;44.67;36.67;;;;;;;;5082655;27;46348;-73
2023/06/22 04:42:17;;;;;;;;;20.00;20.00;;;;;;;;5084421;27;47313;-75
2023/06/22 04:44:42;;;;;;;;;13.00;13.00;;;;;;;;5084735;27;45257;-74
2023/06/22 04:47:16;;;;;;;;;9.00;9.00;;;;;;;;5084822;27;45277;-73
2023/06/22 04:49:52;;;;;;;;;11.67;11.67;;;;;;;;5084507;27;45475;-74
2023/06/22 04:52:20;;;;;;;;;8.33;8.33;;;;;;;;5084399;27;45422;-73
2023/06/22 04:54:47;;;;;;;;;10.33;10.33;;;;;;;;5084322;27;45419;-74
2023/06/22 04:57:13;;;;;;;;;10.00;10.00;;;;;;;;5084702;27;45331;-73
2023/06/22 04:59:39;;;;;;;;;9.00;9.00;;;;;;;;5084599;27;45602;-74
2023/06/22 05:02:05;;;;;;;;;11.33;11.33;;;;;;;;5084364;27;47719;-74
2023/06/22 05:04:35;;;;;;;;;10.33;9.00;;;;;;;;5084645;27;45251;-74
2023/06/22 05:07:01;;;;;;;;;15.67;15.33;;;;;;;;5084549;27;45386;-74
2023/06/22 05:09:26;;;;;;;;;26.00;22.67;;;;;;;;5084213;27;46372;-74
2023/06/22 05:11:52;;;;;;;;;13.33;13.33;;;;;;;;5102478;27;46289;-74
2023/06/22 05:14:17;;;;;;;;;11.33;11.33;;;;;;;;5084064;27;45440;-74
2023/06/22 05:16:44;;;;;;;;;12.00;8.67;;;;;;;;5085204;27;45323;-75
2023/06/22 05:19:09;;;;;;;;;9.67;9.33;;;;;;;;5088857;27;46393;-75
2023/06/22 05:21:34;;;;;;;;;9.00;9.00;;;;;;;;5105193;27;45282;-75
2023/06/22 05:24:01;;;;;;;;;12.33;12.33;;;;;;;;5106870;27;45194;-75
2023/06/22 05:26:27;;;;;;;;;12.00;12.00;;;;;;;;5084297;27;45185;-74
2023/06/22 05:28:53;;;;;;;;;11.33;11.00;;;;;;;;5078963;28;46167;-76
2023/06/22 05:31:21;;;;;;;;;9.33;9.00;;;;;;;;5090757;28;46560;-75
2023/06/22 05:33:47;;;;;;;;;14.00;13.67;;;;;;;;5074987;28;45804;-75
2023/06/22 05:36:13;;;;;;;;;10.33;8.67;;;;;;;;5090695;28;44720;-75
2023/06/22 05:38:38;;;;;;;;;11.33;10.00;;;;;;;;5085330;28;45493;-74
2023/06/22 05:41:03;;;;;;;;;11.00;10.33;;;;;;;;5082536;28;46060;-74
2023/06/22 05:43:29;;;;;;;;;11.00;11.00;;;;;;;;5086952;28;45392;-74
2023/06/22 05:45:54;;;;;;;;;13.33;13.33;;;;;;;;5089355;28;45272;-76
2023/06/22 05:48:19;;;;;;;;;11.67;11.00;;;;;;;;5089442;28;45198;-75
2023/06/22 05:50:45;;;;;;;;;13.00;12.67;;;;;;;;5085814;28;45518;-74
2023/06/22 05:53:10;;;;;;;;;14.00;13.00;;;;;;;;5064487;28;45290;-73
2023/06/22 05:55:35;;;;;;;;;15.33;13.67;;;;;;;;5064673;28;45220;-73
2023/06/22 05:58:00;;;;;;;;;15.00;13.67;;;;;;;;5081494;28;45485;-73
2023/06/22 06:00:26;;;;;;;;;16.33;13.00;;;;;;;;5062559;28;47144;-73
2023/06/22 06:02:51;;;;;;;;;12.33;12.00;;;;;;;;5081467;28;45318;-73
2023/06/22 06:05:16;;;;;;;;;14.33;12.00;;;;;;;;5081591;28;45266;-73
2023/06/22 06:07:42;;;;;;;;;15.33;15.00;;;;;;;;5063217;28;45906;-73
2023/06/22 06:10:07;;;;;;;;;14.33;14.33;;;;;;;;5081250;28;45239;-73
2023/06/22 06:12:33;;;;;;;;;10.67;10.67;;;;;;;;5081504;28;45235;-73
2023/06/22 06:14:58;;;;;;;;;14.67;14.67;;;;;;;;5063211;28;45428;-72
2023/06/22 06:17:23;;;;;;;;;18.00;18.00;;;;;;;;5063197;28;47281;-73
2023/06/22 06:19:48;;;;;;;;;13.33;13.33;;;;;;;;5081259;28;45211;-73
2023/06/22 06:22:13;;;;;;;;;15.00;13.00;;;;;;;;5081261;28;45577;-72
2023/06/22 06:24:38;;;;;;;;;14.33;14.33;;;;;;;;5062958;28;45311;-73
2023/06/22 06:27:04;;;;;;;;;12.00;10.67;;;;;;;;5081248;28;45314;-73
2023/06/22 06:29:30;;;;;;;;;17.00;16.00;;;;;;;;5081079;28;46589;-73
2023/06/22 06:31:55;;;;;;;;;16.00;16.00;;;;;;;;5062895;28;45350;-73
2023/06/22 06:34:20;;;;;;;;;17.67;17.00;;;;;;;;5081286;28;45499;-74
2023/06/22 06:36:45;;;;;;;;;15.00;15.00;;;;;;;;5080907;28;45581;-73
2023/06/22 06:39:11;;;;;;;;;20.33;20.00;;;;;;;;5062498;28;47545;-73
2023/06/22 06:41:37;;;;;;;;;21.33;19.67;;;;;;;;5080133;28;45511;-74
2023/06/22 06:44:02;;;;;;;;;16.33;15.00;;;;;;;;5081010;28;45402;-74
2023/06/22 06:46:27;;;;;;;;;15.67;15.67;;;;;;;;5080932;28;45325;-72
2023/06/22 06:48:52;;;;;;;;;18.67;18.67;;;;;;;;5062434;28;48375;-72
2023/06/22 06:51:17;;;;;;;;;19.67;19.00;;;;;;;;5080753;28;45350;-73
2023/06/22 06:53:43;;;;;;;;;22.00;18.00;;;;;;;;5080900;28;45388;-73
2023/06/22 06:56:10;;;;;;;;;16.33;16.00;;;;;;;;5081070;28;45347;-74
2023/06/22 06:58:36;;;;;;;;;22.33;21.33;;;;;;;;5081588;28;45294;-73
2023/06/22 07:01:02;;;;;;;;;20.67;20.67;;;;;;;;5080482;28;45276;-74
2023/06/22 07:03:27;;;;;;;;;19.67;18.67;;;;;;;;5061720;28;45232;-73
2023/06/22 07:05:52;;;;;;;;;23.33;23.33;;;;;;;;5081445;28;45202;-74
2023/06/22 07:08:17;;;;;;;;;24.67;23.33;;;;;;;;5081683;28;46000;-74
2023/06/22 07:10:42;;;;;;;;;22.67;21.00;;;;;;;;5080840;28;45275;-73
2023/06/22 07:13:08;;;;;;;;;28.00;26.33;;;;;;;;5080809;28;45144;-73
2023/06/22 07:15:33;;;;;;;;;29.33;27.67;;;;;;;;5080693;28;45227;-74
2023/06/22 07:17:58;;;;;;;;;36.33;31.00;;;;;;;;5080516;28;46291;-74
2023/06/22 07:20:23;;;;;;;;;36.33;32.00;;;;;;;;5077311;27;45449;-73
2023/06/22 07:22:48;;;;;;;;;35.33;30.67;;;;;;;;5073979;28;45485;-74
2023/06/22 07:25:14;;;;;;;;;30.00;29.00;;;;;;;;5078806;27;45413;-74
2023/06/22 07:27:43;;;;;;;;;32.67;30.33;;;;;;;;5079876;28;45320;-74
2023/06/22 07:30:09;;;;;;;;;36.67;31.33;;;;;;;;5087096;27;45427;-75
2023/06/22 07:32:34;;;;;;;;;27.00;26.00;;;;;;;;5080157;28;45213;-75
2023/06/22 07:34:59;;;;;;;;;32.67;30.33;;;;;;;;5079997;27;45435;-75
2023/06/22 07:37:24;;;;;;;;;30.00;29.00;;;;;;;;5061404;28;48398;-74
2023/06/22 07:39:53;;;;;;;;;32.33;30.33;;;;;;;;5061588;28;45242;-75
2023/06/22 07:42:19;;;;;;;;;37.00;32.67;;;;;;;;5079797;28;45430;-74
2023/06/22 07:44:44;;;;;;;;;34.33;31.33;;;;;;;;5079560;27;45434;-75
2023/06/22 07:47:09;;;;;;;;;36.00;32.00;;;;;;;;5079704;28;46396;-75
2023/06/22 07:49:34;;;;;;;;;32.33;29.00;;;;;;;;5079559;28;45362;-75
2023/06/22 07:52:01;;;;;;;;;33.00;30.67;;;;;;;;5080650;27;45366;-74
2023/06/22 07:54:26;;;;;;;;;35.33;31.00;;;;;;;;5079038;28;45413;-75
2023/06/22 07:56:52;;;;;;;;;37.00;32.33;;;;;;;;5059914;28;47146;-74
2023/06/22 07:59:17;;;;;;;;;35.00;31.33;;;;;;;;5078139;28;45396;-74
2023/06/22 08:01:42;;;;;;;;;38.00;33.00;;;;;;;;5079781;27;45335;-75
2023/06/22 08:04:08;;;;;;;;;37.33;33.00;;;;;;;;5080469;28;45256;-74
2023/06/22 08:06:33;;;;;;;;;30.67;28.67;;;;;;;;5060972;28;46951;-74
2023/06/22 08:08:58;;;;;;;;;34.00;31.67;;;;;;;;5080362;28;45346;-75
2023/06/22 08:11:25;;;;;;;;;34.67;31.00;;;;;;;;5078798;27;45415;-74
2023/06/22 08:13:50;;;;;;;;;39.00;32.67;;;;;;;;5081373;28;45380;-74
2023/06/22 08:16:15;;;;;;;;;34.67;31.00;;;;;;;;5082864;27;45336;-74
2023/06/22 08:18:40;;;;;;;;;36.33;32.67;;;;;;;;5083461;28;45247;-74
2023/06/22 08:21:05;;;;;;;;;36.33;31.33;;;;;;;;5089426;27;45405;-74
2023/06/22 08:23:31;;;;;;;;;43.00;37.00;;;;;;;;5075356;28;46037;-74
2023/06/22 08:25:56;;;;;;;;;47.67;39.67;;;;;;;;5064621;28;48175;-74
2023/06/22 08:28:21;;;;;;;;;40.67;35.00;;;;;;;;5082226;27;45176;-73
2023/06/22 08:30:46;;;;;;;;;45.33;37.00;;;;;;;;5103205;27;45203;-74
2023/06/22 08:33:12;;;;;;;;;42.67;36.00;;;;;;;;5099426;27;45397;-74
2023/06/22 08:35:38;;;;;;;;;39.00;33.00;;;;;;;;5084003;27;46990;-75
2023/06/22 08:38:03;;;;;;;;;41.33;34.00;;;;;;;;5083554;28;45322;-73
2023/06/22 08:40:29;;;;;;;;;41.33;35.33;;;;;;;;5064385;28;45248;-73
2023/06/22 08:42:54;;;;;;;;;34.00;31.33;;;;;;;;5081777;27;45506;-74
2023/06/22 08:45:19;;;;;;;;;40.67;34.67;;;;;;;;5082127;28;45247;-74
2023/06/22 08:47:44;;;;;;;;;42.00;34.00;;;;;;;;5080111;28;45378;-73
2023/06/22 08:50:10;;;;;;;;;41.67;35.00;;;;;;;;5081943;28;45654;-73
2023/06/22 08:52:36;;;;;;;;;38.33;33.00;;;;;;;;5082549;28;45412;-73
2023/06/22 08:55:01;;;;;;;;;36.67;31.67;;;;;;;;5082174;28;46196;-72
2023/06/22 08:57:27;;;;;;;;;40.67;34.00;;;;;;;;5082692;28;45407;-73
2023/06/22 08:59:53;;;;;;;;;42.00;34.67;;;;;;;;5082520;28;45410;-74
2023/06/22 09:02:19;;;;;;;;;41.33;34.33;;;;;;;;5082453;28;45467;-74
2023/06/22 09:04:45;;;;;;;;;41.00;34.67;;;;;;;;5082255;28;46184;-74
2023/06/22 09:07:11;;;;;;;;;40.00;33.33;;;;;;;;5082259;28;45271;-74
2023/06/22 09:09:36;;;;;;;;;41.67;34.00;;;;;;;;5082250;28;45273;-73
2023/06/22 09:12:01;;;;;;;;;37.67;32.33;;;;;;;;5063909;28;45969;-72
2023/06/22 09:14:27;;;;;;;;;38.00;33.67;;;;;;;;5082296;28;46047;-73
2023/06/22 09:16:52;;;;;;;;;33.67;30.00;;;;;;;;5082126;28;45216;-73
2023/06/22 09:19:17;;;;;;;;;35.00;32.00;;;;;;;;5082494;28;45224;-74
2023/06/22 09:21:42;;;;;;;;;33.33;29.33;;;;;;;;5082076;28;45189;-74
2023/06/22 09:24:08;;;;;;;;;33.00;30.33;;;;;;;;5076487;28;45237;-74
2023/06/22 09:26:33;;;;;;;;;39.00;33.00;;;;;;;;5062650;28;45265;-73
2023/06/22 09:28:58;;;;;;;;;35.33;31.67;;;;;;;;5087846;27;45160;-72
2023/06/22 09:31:25;;;;;;;;;28.33;27.67;;;;;;;;5099293;27;45295;-72
2023/06/22 09:33:54;;;;;;;;;39.67;34.00;;;;;;;;5063452;28;47513;-72
2023/06/22 09:36:19;;;;;;;;;26.00;25.67;;;;;;;;5062893;28;45457;-72
2023/06/22 09:38:44;;;;;;;;;31.67;29.33;;;;;;;;5081657;27;45275;-73
2023/06/22 09:41:10;;;;;;;;;34.00;31.33;;;;;;;;5059913;28;47240;-72
2023/06/22 09:43:36;;;;;;;;;36.00;32.33;;;;;;;;5081017;27;45385;-72
2023/06/22 09:46:02;;;;;;;;;35.67;32.00;;;;;;;;5081626;28;45351;-72
2023/06/22 09:48:27;;;;;;;;;34.33;31.33;;;;;;;;5081679;27;45341;-73
2023/06/22 09:50:52;;;;;;;;;28.33;26.00;;;;;;;;5081266;28;45258;-73
2023/06/22 09:53:17;;;;;;;;;33.33;30.33;;;;;;;;5063331;28;47248;-74
2023/06/22 09:55:42;;;;;;;;;35.00;32.00;;;;;;;;5081212;28;45405;-74
2023/06/22 09:58:08;;;;;;;;;29.33;28.33;;;;;;;;5081253;28;45283;-72
2023/06/22 10:00:33;;;;;;;;;30.67;28.33;;;;;;;;5079214;28;45304;-73
2023/06/22 10:02:59;;;;;;;;;37.33;33.00;;;;;;;;5080678;28;45331;-74
2023/06/22 10:05:25;;;;;;;;;35.00;31.00;;;;;;;;5079919;28;45347;-74
2023/06/22 10:07:50;;;;;;;;;35.33;31.00;;;;;;;;5080119;28;45548;-72
2023/06/22 10:10:15;;;;;;;;;33.00;30.00;;;;;;;;5079084;28;45444;-74
2023/06/22 10:12:41;;;;;;;;;37.67;31.67;;;;;;;;5080022;28;45888;-74
2023/06/22 10:15:07;;;;;;;;;39.33;33.00;;;;;;;;5081158;28;45438;-73
2023/06/22 10:17:32;;;;;;;;;35.67;32.33;;;;;;;;5081019;28;45416;-72
2023/06/22 10:19:57;;;;;;;;;34.00;31.00;;;;;;;;5062574;28;46158;-73
2023/06/22 10:22:22;;;;;;;;;39.67;33.67;;;;;;;;5080634;28;45382;-73
2023/06/22 10:24:48;;;;;;;;;41.67;35.00;;;;;;;;5081610;28;45311;-73
2023/06/22 10:27:13;;;;;;;;;41.67;36.00;;;;;;;;5081606;28;45345;-73
2023/06/22 10:29:38;;;;;;;;;39.33;34.33;;;;;;;;5075141;27;46116;-74
2023/06/22 10:32:04;;;;;;;;;29.00;28.33;;;;;;;;5101568;27;46107;-73
2023/06/22 10:34:29;;;;;;;;;41.33;34.67;;;;;;;;5083095;27;45902;-72
2023/06/22 10:36:54;;;;;;;;;40.00;33.00;;;;;;;;5101391;27;45223;-73
2023/06/22 10:39:19;;;;;;;;;34.67;31.33;;;;;;;;5101287;27;45139;-72
2023/06/22 10:41:45;;;;;;;;;37.00;32.33;;;;;;;;5100997;27;45927;-72
2023/06/22 10:44:10;;;;;;;;;31.67;29.33;;;;;;;;5101548;27;45296;-73
2023/06/22 10:46:35;;;;;;;;;27.67;27.67;;;;;;;;5101524;27;45289;-73
2023/06/22 10:49:01;;;;;;;;;30.67;29.67;;;;;;;;5101400;27;45211;-72
2023/06/22 10:51:28;;;;;;;;;26.33;26.00;;;;;;;;5101177;27;45374;-72
2023/06/22 10:53:53;;;;;;;;;29.00;28.00;;;;;;;;5101090;27;45352;-72
2023/06/22 10:56:19;;;;;;;;;26.67;26.00;;;;;;;;5082774;27;45374;-72
2023/06/22 10:58:44;;;;;;;;;31.33;29.67;;;;;;;;5101236;27;45649;-73
2023/06/22 11:01:09;;;;;;;;;36.33;32.33;;;;;;;;5100923;27;45397;-71
2023/06/22 11:03:34;;;;;;;;;35.00;31.00;;;;;;;;5101081;27;45301;-72
2023/06/22 11:06:00;;;;;;;;;39.67;32.67;;;;;;;;5101191;27;45590;-73
2023/06/22 11:08:25;;;;;;;;;32.33;29.67;;;;;;;;5101015;27;45412;-73
2023/06/22 11:10:51;;;;;;;;;38.00;32.33;;;;;;;;5099907;27;45502;-74
2023/06/22 11:13:16;;;;;;;;;36.67;32.00;;;;;;;;5098941;27;45412;-72
2023/06/22 11:15:41;;;;;;;;;34.33;31.33;;;;;;;;5099292;27;45532;-73
2023/06/22 11:18:07;;;;;;;;;36.33;32.00;;;;;;;;5100355;27;45372;-72
2023/06/22 11:20:34;;;;;;;;;32.33;29.67;;;;;;;;5099276;27;46031;-72
2023/06/22 11:22:59;;;;;;;;;27.67;27.00;;;;;;;;5100657;27;45149;-73
2023/06/22 11:25:25;;;;;;;;;32.33;30.00;;;;;;;;5100704;27;45266;-73
2023/06/22 11:27:51;;;;;;;;;36.00;32.00;;;;;;;;5082352;27;47151;-73
2023/06/22 11:30:16;;;;;;;;;35.67;31.67;;;;;;;;5065278;28;47978;-72
2023/06/22 11:32:41;;;;;;;;;33.67;30.00;;;;;;;;5080110;28;45303;-72
2023/06/22 11:35:07;;;;;;;;;35.33;31.67;;;;;;;;5080103;28;45231;-73
2023/06/22 11:37:32;;;;;;;;;35.33;31.33;;;;;;;;5061615;28;46036;-73
2023/06/22 11:39:58;;;;;;;;;34.33;31.00;;;;;;;;5079602;28;45344;-72
2023/06/22 11:42:23;;;;;;;;;39.00;34.00;;;;;;;;5079754;28;45295;-73
2023/06/22 11:44:48;;;;;;;;;34.33;31.00;;;;;;;;5080183;28;45256;-74
2023/06/22 11:47:14;;;;;;;;;32.67;29.67;;;;;;;;5080079;28;45282;-73
2023/06/22 11:49:40;;;;;;;;;38.00;34.33;;;;;;;;5079545;28;46490;-74
2023/06/22 11:52:05;;;;;;;;;37.67;31.67;;;;;;;;5080037;28;45385;-73
2023/06/22 11:54:30;;;;;;;;;35.00;31.67;;;;;;;;5080013;28;45663;-73
2023/06/22 11:56:55;;;;;;;;;36.00;31.67;;;;;;;;5061337;28;46122;-74
2023/06/22 11:59:22;;;;;;;;;37.00;32.67;;;;;;;;5079820;28;46142;-73
2023/06/22 12:01:47;;;;;;;;;34.67;31.33;;;;;;;;5079821;28;45311;-73
2023/06/22 12:04:12;;;;;;;;;32.00;29.67;;;;;;;;5079886;28;45283;-73
2023/06/22 12:06:38;;;;;;;;;34.67;30.67;;;;;;;;5079650;28;45308;-72
2023/06/22 12:09:04;;;;;;;;;36.67;32.00;;;;;;;;5079627;28;45383;-72
2023/06/22 12:11:29;;;;;;;;;34.67;30.33;;;;;;;;5079657;28;45310;-74
2023/06/22 12:13:54;;;;;;;;;29.00;28.00;;;;;;;;5061304;28;45416;-74
2023/06/22 12:16:21;;;;;;;;;30.00;28.00;;;;;;;;5079668;28;45202;-74
2023/06/22 12:18:46;;;;;;;;;30.33;28.00;;;;;;;;5079581;28;46509;-73
2023/06/22 12:21:11;;;;;;;;;27.00;26.67;;;;;;;;5079276;28;45346;-72
2023/06/22 12:23:36;;;;;;;;;33.33;30.33;;;;;;;;5079801;28;45165;-72
2023/06/22 12:26:02;;;;;;;;;29.33;28.33;;;;;;;;5079428;28;45238;-72
2023/06/22 12:28:27;;;;;;;;;29.33;27.67;;;;;;;;5080898;27;45337;-72
2023/06/22 12:30:52;;;;;;;;;25.33;25.33;;;;;;;;5100063;27;45213;-73
2023/06/22 12:33:17;;;;;;;;;24.67;24.67;;;;;;;;5099888;27;45269;-72
2023/06/22 12:35:45;;;;;;;;;24.00;22.67;;;;;;;;5099861;27;45358;-72
2023/06/22 12:38:10;;;;;;;;;24.00;22.67;;;;;;;;5099794;27;46239;-73
2023/06/22 12:40:35;;;;;;;;;21.00;21.00;;;;;;;;5099657;27;45312;-73
2023/06/22 12:43:02;;;;;;;;;20.00;19.00;;;;;;;;5099443;27;45437;-72
2023/06/22 12:45:28;;;;;;;;;16.33;16.33;;;;;;;;5099662;27;45476;-72
2023/06/22 12:47:54;;;;;;;;;18.67;17.00;;;;;;;;5099683;27;45278;-74
2023/06/22 12:50:19;;;;;;;;;18.67;17.33;;;;;;;;5099598;27;45348;-73
2023/06/22 12:52:44;;;;;;;;;13.67;13.67;;;;;;;;5099825;27;45508;-72
2023/06/22 12:55:09;;;;;;;;;11.33;11.33;;;;;;;;5080941;27;46850;-72
2023/06/22 12:57:34;;;;;;;;;12.33;12.00;;;;;;;;5099518;27;45361;-73
2023/06/22 13:00:00;;;;;;;;;13.33;13.33;;;;;;;;5100142;27;45274;-74
2023/06/22 13:02:26;;;;;;;;;14.00;14.00;;;;;;;;5084674;27;45326;-73
2023/06/22 13:04:51;;;;;;;;;13.00;13.00;;;;;;;;5103041;27;45459;-72
2023/06/22 13:07:16;;;;;;;;;11.67;11.00;;;;;;;;5102939;27;45345;-72
2023/06/22 13:09:41;;;;;;;;;10.67;9.00;;;;;;;;5102604;27;45716;-72
2023/06/22 13:12:07;;;;;;;;;14.00;13.33;;;;;;;;5103125;27;45167;-72
2023/06/22 13:14:32;;;;;;;;;13.33;13.00;;;;;;;;5102841;27;45221;-73
2023/06/22 13:16:57;;;;;;;;;13.00;12.67;;;;;;;;5102742;27;46128;-73
2023/06/22 13:19:22;;;;;;;;;11.33;11.33;;;;;;;;5084452;27;45297;-72
2023/06/22 13:21:47;;;;;;;;;10.00;10.00;;;;;;;;5102852;27;45591;-73
2023/06/22 13:24:13;;;;;;;;;14.00;14.00;;;;;;;;5102611;27;45286;-73
2023/06/22 13:26:38;;;;;;;;;15.00;15.00;;;;;;;;5102665;27;46714;-72
2023/06/22 13:29:03;;;;;;;;;12.33;12.33;;;;;;;;5095948;27;45248;-72
2023/06/22 13:31:28;;;;;;;;;15.67;13.67;;;;;;;;5082350;28;45298;-72
2023/06/22 13:33:53;;;;;;;;;15.00;14.00;;;;;;;;5081924;28;45312;-71
2023/06/22 13:36:19;;;;;;;;;14.33;14.33;;;;;;;;5063564;28;47272;-71
2023/06/22 13:38:44;;;;;;;;;16.67;16.67;;;;;;;;5081935;28;45304;-72
2023/06/22 13:41:10;;;;;;;;;14.67;14.33;;;;;;;;5081887;28;45333;-72
2023/06/22 13:43:35;;;;;;;;;17.00;17.00;;;;;;;;5081408;28;45607;-71
2023/06/22 13:46:00;;;;;;;;;13.67;13.67;;;;;;;;5081840;28;46139;-71
2023/06/22 13:48:25;;;;;;;;;14.67;14.67;;;;;;;;5081907;28;45296;-71
2023/06/22 13:50:51;;;;;;;;;17.33;16.33;;;;;;;;5081881;28;45362;-72
2023/06/22 13:53:16;;;;;;;;;18.00;17.33;;;;;;;;5081666;28;45325;-71
2023/06/22 13:55:41;;;;;;;;;22.33;22.33;;;;;;;;5081491;28;46510;-72
2023/06/22 13:58:06;;;;;;;;;22.00;21.00;;;;;;;;5081754;28;45252;-71
2023/06/22 14:00:32;;;;;;;;;22.67;20.67;;;;;;;;5063372;28;45346;-72
2023/06/22 14:02:57;;;;;;;;;23.00;22.00;;;;;;;;5081391;28;45303;-72
2023/06/22 14:05:22;;;;;;;;;22.00;21.00;;;;;;;;5081376;28;46719;-71
2023/06/22 14:07:47;;;;;;;;;23.67;23.67;;;;;;;;5081594;28;45260;-72
2023/06/22 14:10:12;;;;;;;;;17.67;16.67;;;;;;;;5081493;28;45320;-71
2023/06/22 14:12:38;;;;;;;;;22.00;22.00;;;;;;;;5081040;28;45429;-71
2023/06/22 14:15:03;;;;;;;;;25.67;24.67;;;;;;;;5081295;28;45292;-71